createdAt,value
2023-04-29T00:00:12.635Z,41.13
2023-04-29T00:02:42.325Z,41.40
2023-04-29T00:05:13.666Z,43.10
2023-04-29T00:07:43.072Z,38.78
2023-04-29T00:10:15.099Z,38.47
2023-04-29T00:12:44.060Z,41.50
2023-04-29T00:15:13.132Z,44.90
2023-04-29T00:17:42.171Z,43.20
2023-04-29T00:20:14.459Z,48.78
2023-04-29T00:22:43.389Z,46.00
2023-04-29T00:25:13.337Z,42.90
2023-04-29T00:27:42.556Z,46.78
2023-04-29T00:30:12.317Z,40.22
2023-04-29T00:32:41.072Z,36.38
2023-04-29T00:35:10.852Z,33.50
2023-04-29T00:37:41.112Z,35.70
2023-04-29T00:40:11.295Z,33.80
2023-04-29T00:42:40.518Z,34.60
2023-04-29T00:45:12.608Z,39.17
2023-04-29T00:47:42.119Z,36.72
2023-04-29T00:50:11.466Z,38.38
2023-04-29T00:52:41.723Z,37.40
2023-04-29T00:55:12.886Z,38.83
2023-04-29T00:57:42.688Z,38.75
2023-04-29T01:00:12.397Z,39.97
2023-04-29T01:02:42.018Z,36.97
2023-04-29T01:05:11.016Z,40.40
2023-04-29T01:07:53.732Z,38.40
2023-04-29T01:10:30.033Z,33.75
2023-04-29T01:13:08.247Z,39.10
2023-04-29T01:15:47.401Z,34.55
2023-04-29T01:18:23.695Z,35.83
2023-04-29T01:20:53.371Z,33.70
2023-04-29T01:23:30.712Z,35.97
2023-04-29T01:25:59.921Z,32.05
2023-04-29T01:28:59.264Z,33.33
2023-04-29T01:31:33.672Z,31.35
2023-04-29T01:34:11.545Z,36.25
2023-04-29T01:36:48.951Z,30.77
2023-04-29T01:39:28.385Z,37.25
2023-04-29T01:42:19.827Z,34.58
2023-04-29T01:44:51.207Z,36.20
2023-04-29T01:47:23.280Z,37.22
2023-04-29T01:49:55.399Z,44.83
2023-04-29T01:52:24.827Z,46.17
2023-04-29T01:54:59.640Z,44.38
2023-04-29T01:57:35.941Z,47.50
2023-04-29T02:00:19.711Z,45.92
2023-04-29T02:02:54.770Z,45.17
2023-04-29T02:05:32.540Z,42.88
2023-04-29T02:08:03.872Z,43.03
2023-04-29T02:10:36.078Z,42.38
2023-04-29T02:13:15.790Z,39.03
2023-04-29T02:15:45.005Z,37.13
2023-04-29T02:18:14.431Z,41.72
2023-04-29T02:20:43.488Z,38.17
2023-04-29T02:23:12.694Z,38.70
2023-04-29T02:25:42.918Z,37.20
2023-04-29T02:28:13.373Z,43.85
2023-04-29T02:30:43.269Z,24.75
2023-04-29T02:33:12.094Z,32.38
2023-04-29T02:35:41.279Z,30.30
2023-04-29T02:38:10.602Z,36.90
2023-04-29T02:40:44.786Z,27.65
2023-04-29T02:43:14.319Z,30.05
2023-04-29T02:45:43.217Z,26.13
2023-04-29T02:48:12.747Z,24.40
2023-04-29T02:50:42.283Z,29.00
2023-04-29T02:53:11.331Z,29.80
2023-04-29T02:55:40.242Z,25.25
2023-04-29T02:58:13.939Z,26.55
2023-04-29T03:00:43.243Z,23.50
2023-04-29T03:03:12.374Z,23.77
2023-04-29T03:05:42.124Z,24.05
2023-04-29T03:08:11.364Z,22.83
2023-04-29T03:10:41.738Z,19.08
2023-04-29T03:13:11.170Z,21.13
2023-04-29T03:15:41.895Z,22.25
2023-04-29T03:18:11.112Z,19.40
2023-04-29T03:20:40.416Z,21.70
2023-04-29T03:23:09.374Z,20.13
2023-04-29T03:25:39.193Z,21.83
2023-04-29T03:28:09.411Z,23.98
2023-04-29T03:30:39.027Z,27.00
2023-04-29T03:33:09.775Z,22.63
2023-04-29T03:35:39.086Z,20.40
2023-04-29T03:38:20.326Z,17.80
2023-04-29T03:40:50.960Z,19.35
2023-04-29T03:43:20.666Z,16.63
2023-04-29T03:45:50.610Z,18.13
2023-04-29T03:48:23.979Z,13.82
2023-04-29T03:50:54.369Z,17.42
2023-04-29T03:53:23.329Z,20.75
2023-04-29T03:55:52.143Z,16.70
2023-04-29T03:58:21.246Z,19.52
2023-04-29T04:00:50.142Z,24.48
2023-04-29T04:03:26.302Z,25.40
2023-04-29T04:05:57.765Z,24.70
2023-04-29T04:08:27.272Z,30.23
2023-04-29T04:11:15.988Z,27.73
2023-04-29T04:13:50.313Z,27.42
2023-04-29T04:16:19.937Z,30.30
2023-04-29T04:18:50.348Z,30.15
2023-04-29T04:21:19.762Z,33.95
2023-04-29T04:23:56.696Z,35.00
2023-04-29T04:26:27.239Z,43.83
2023-04-29T04:29:14.703Z,34.53
2023-04-29T04:31:57.384Z,35.65
2023-04-29T04:34:29.013Z,40.42
2023-04-29T04:37:00.695Z,35.25
2023-04-29T04:39:30.042Z,35.80
2023-04-29T04:42:00.414Z,38.25
2023-04-29T04:44:32.060Z,32.42
2023-04-29T04:47:13.811Z,35.00
2023-04-29T04:50:07.485Z,30.30
2023-04-29T04:52:36.963Z,30.13
2023-04-29T04:55:19.028Z,29.33
2023-04-29T04:57:51.724Z,27.23
2023-04-29T05:00:20.735Z,25.35
2023-04-29T05:02:49.791Z,31.75
2023-04-29T05:05:21.223Z,30.23
2023-04-29T05:07:50.315Z,26.42
2023-04-29T05:10:26.583Z,23.92
2023-04-29T05:12:58.566Z,25.10
2023-04-29T05:15:28.069Z,24.77
2023-04-29T05:20:31.928Z,22.63
2023-04-29T05:23:03.963Z,27.67
2023-04-29T05:25:38.180Z,21.17
2023-04-29T05:28:09.266Z,19.55
2023-04-29T05:30:42.114Z,20.33
2023-04-29T05:33:11.325Z,22.77
2023-04-29T05:35:42.030Z,18.65
2023-04-29T05:38:12.061Z,18.73
2023-04-29T05:40:43.737Z,21.85
2023-04-29T05:43:31.283Z,23.02
2023-04-29T05:46:01.135Z,23.92
2023-04-29T05:48:30.475Z,21.25
2023-04-29T05:51:01.038Z,28.25
2023-04-29T05:53:31.515Z,26.52
2023-04-29T05:56:00.858Z,32.00
2023-04-29T05:58:30.253Z,25.05
2023-04-29T06:01:00.048Z,29.48
2023-04-29T06:03:30.359Z,27.27
2023-04-29T06:06:30.311Z,28.88
2023-04-29T06:09:23.847Z,27.58
2023-04-29T06:11:58.119Z,22.77
2023-04-29T06:14:27.248Z,25.42
2023-04-29T06:16:56.697Z,22.77
2023-04-29T06:19:27.701Z,25.23
2023-04-29T06:21:59.350Z,23.13
2023-04-29T06:24:28.632Z,25.30
2023-04-29T06:26:59.177Z,26.10
2023-04-29T06:29:28.759Z,22.38
2023-04-29T06:31:57.885Z,20.20
2023-04-29T06:34:27.206Z,24.15
2023-04-29T06:37:16.369Z,20.80
2023-04-29T06:39:57.767Z,21.45
2023-04-29T06:42:54.213Z,24.13
2023-04-29T06:45:41.900Z,23.52
2023-04-29T06:48:20.137Z,27.08
2023-04-29T06:50:54.435Z,28.02
2023-04-29T06:53:25.093Z,25.40
2023-04-29T06:55:54.179Z,25.13
2023-04-29T06:58:23.364Z,29.08
2023-04-29T07:00:53.222Z,28.25
2023-04-29T07:03:24.457Z,24.10
2023-04-29T07:05:53.355Z,26.08
2023-04-29T07:08:23.292Z,27.25
2023-04-29T07:10:57.696Z,24.35
2023-04-29T07:13:27.190Z,26.15
2023-04-29T07:15:56.250Z,24.55
2023-04-29T07:18:25.361Z,28.00
2023-04-29T07:20:55.953Z,28.83
2023-04-29T07:23:24.991Z,32.38
2023-04-29T07:25:54.244Z,24.92
2023-04-29T07:28:24.703Z,24.98
2023-04-29T07:30:55.333Z,30.55
2023-04-29T07:33:24.658Z,27.17
2023-04-29T07:35:53.850Z,29.00
2023-04-29T07:38:23.153Z,26.40
2023-04-29T07:40:52.531Z,27.27
2023-04-29T07:43:22.229Z,28.52
2023-04-29T07:45:53.357Z,29.58
2023-04-29T07:48:23.332Z,32.85
2023-04-29T07:50:52.740Z,30.48
2023-04-29T07:53:22.197Z,32.63
2023-04-29T07:55:52.800Z,28.98
2023-04-29T07:58:24.252Z,30.40
2023-04-29T08:00:54.764Z,31.40
2023-04-29T08:03:24.428Z,30.08
2023-04-29T08:05:53.876Z,32.63
2023-04-29T08:08:23.279Z,31.08
2023-04-29T08:10:54.666Z,31.70
2023-04-29T08:13:24.232Z,29.60
2023-04-29T08:15:54.445Z,34.25
2023-04-29T08:18:23.470Z,27.83
2023-04-29T08:20:52.387Z,26.42
2023-04-29T08:23:22.665Z,29.08
2023-04-29T08:25:53.961Z,27.30
2023-04-29T08:28:23.578Z,27.45
2023-04-29T08:30:52.377Z,31.60
2023-04-29T08:33:22.646Z,27.35
2023-04-29T08:35:58.979Z,27.13
2023-04-29T08:38:28.181Z,28.60
2023-04-29T08:40:57.616Z,29.52
2023-04-29T08:43:28.026Z,26.25
2023-04-29T08:45:59.236Z,26.27
2023-04-29T08:48:31.476Z,26.40
2023-04-29T08:51:01.905Z,25.23
2023-04-29T08:53:31.242Z,26.75
2023-04-29T08:56:04.970Z,26.90
2023-04-29T08:58:37.216Z,24.05
2023-04-29T09:01:09.844Z,25.98
2023-04-29T09:03:45.986Z,24.30
2023-04-29T09:06:17.182Z,22.20
2023-04-29T09:08:46.323Z,24.02
2023-04-29T09:11:16.180Z,23.70
2023-04-29T09:13:45.076Z,24.92
2023-04-29T09:16:14.614Z,28.48
2023-04-29T09:18:47.804Z,24.92
2023-04-29T09:21:22.947Z,25.27
2023-04-29T09:23:53.416Z,25.05
2023-04-29T09:26:24.284Z,25.75
2023-04-29T09:29:10.478Z,25.30
2023-04-29T09:31:40.226Z,25.00
2023-04-29T09:34:11.797Z,25.20
2023-04-29T09:36:45.101Z,25.13
2023-04-29T09:39:16.947Z,26.98
2023-04-29T09:42:02.948Z,25.35
2023-04-29T09:44:34.316Z,23.65
2023-04-29T09:47:04.872Z,22.80
2023-04-29T09:49:37.467Z,22.95
2023-04-29T09:54:38.527Z,26.27
2023-04-29T09:57:08.542Z,22.98
2023-04-29T09:59:39.140Z,22.63
2023-04-29T10:02:15.400Z,24.42
2023-04-29T10:04:47.611Z,29.58
2023-04-29T10:07:17.924Z,23.55
2023-04-29T10:09:48.245Z,25.83
2023-04-29T10:12:18.912Z,25.48
2023-04-29T10:14:55.222Z,23.95
2023-04-29T10:17:34.269Z,24.60
2023-04-29T10:20:07.554Z,25.00
2023-04-29T10:22:44.053Z,21.63
2023-04-29T10:25:14.691Z,23.60
2023-04-29T10:27:45.749Z,18.10
2023-04-29T10:30:16.560Z,20.08
2023-04-29T10:35:22.870Z,19.10
2023-04-29T10:37:52.994Z,19.02
2023-04-29T10:40:29.440Z,18.73
2023-04-29T10:42:59.696Z,20.90
2023-04-29T10:45:31.717Z,18.25
2023-04-29T10:48:19.118Z,19.88
2023-04-29T10:51:06.089Z,20.88
2023-04-29T10:53:35.529Z,18.00
2023-04-29T10:56:11.224Z,20.65
2023-04-29T10:58:45.190Z,21.05
2023-04-29T11:01:15.537Z,17.67
2023-04-29T11:03:55.761Z,18.48
2023-04-29T11:06:28.046Z,20.02
2023-04-29T11:09:04.897Z,19.13
2023-04-29T11:11:59.303Z,16.80
2023-04-29T11:14:31.074Z,17.85
2023-04-29T11:17:01.475Z,16.25
2023-04-29T11:19:34.724Z,18.35
2023-04-29T11:22:30.358Z,16.38
2023-04-29T11:25:01.560Z,18.45
2023-04-29T11:27:33.269Z,21.15
2023-04-29T11:30:05.195Z,15.82
2023-04-29T11:32:36.348Z,19.20
2023-04-29T11:35:12.891Z,17.30
2023-04-29T11:37:44.483Z,17.33
2023-04-29T11:40:14.566Z,14.55
2023-04-29T11:42:45.957Z,14.13
2023-04-29T11:45:15.748Z,14.70
2023-04-29T11:47:46.449Z,13.77
2023-04-29T11:50:18.010Z,14.55
2023-04-29T11:52:49.619Z,14.02
2023-04-29T11:55:18.613Z,13.90
2023-04-29T11:57:51.192Z,18.58
2023-04-29T12:00:20.390Z,15.20
2023-04-29T12:02:50.113Z,17.25
2023-04-29T12:05:19.831Z,16.65
2023-04-29T12:07:52.433Z,17.15
2023-04-29T12:10:21.906Z,15.68
2023-04-29T12:12:51.102Z,15.82
2023-04-29T12:15:20.143Z,14.48
2023-04-29T12:17:49.214Z,14.65
2023-04-29T12:20:18.341Z,12.07
2023-04-29T12:22:49.003Z,14.60
2023-04-29T12:25:20.856Z,15.68
2023-04-29T12:27:50.096Z,19.20
2023-04-29T12:30:19.346Z,16.10
2023-04-29T12:32:48.719Z,13.98
2023-04-29T12:35:18.620Z,15.77
2023-04-29T12:37:50.791Z,16.35
2023-04-29T12:40:21.562Z,14.95
2023-04-29T12:42:51.624Z,11.40
2023-04-29T12:45:32.903Z,13.23
2023-04-29T12:48:08.969Z,13.35
2023-04-29T12:50:41.594Z,12.68
2023-04-29T12:53:11.884Z,16.02
2023-04-29T12:55:42.392Z,14.77
2023-04-29T12:58:11.487Z,11.45
2023-04-29T13:00:40.318Z,14.98
2023-04-29T13:03:09.690Z,10.10
2023-04-29T13:05:38.910Z,13.75
2023-04-29T13:08:08.427Z,10.82
2023-04-29T13:10:37.893Z,12.10
2023-04-29T13:13:10.226Z,11.48
2023-04-29T13:15:39.740Z,12.32
2023-04-29T13:18:08.811Z,12.13
2023-04-29T13:20:41.552Z,12.35
2023-04-29T13:23:12.396Z,11.77
2023-04-29T13:25:41.258Z,11.95
2023-04-29T13:28:12.262Z,10.75
2023-04-29T13:30:41.664Z,11.18
2023-04-29T13:33:12.617Z,11.32
2023-04-29T13:35:42.513Z,10.20
2023-04-29T13:38:12.679Z,10.43
2023-04-29T13:40:46.522Z,12.23
2023-04-29T13:43:27.998Z,13.13
2023-04-29T13:46:07.240Z,12.55
2023-04-29T13:49:11.495Z,11.60
2023-04-29T13:52:03.658Z,13.13
2023-04-29T13:59:38.052Z,12.13
2023-04-29T14:02:24.007Z,12.57
2023-04-29T14:04:54.983Z,13.65
2023-04-29T14:07:24.623Z,13.75
2023-04-29T14:09:53.464Z,10.90
2023-04-29T14:12:22.359Z,22.73
2023-04-29T14:14:53.401Z,15.98
2023-04-29T14:17:22.395Z,14.98
2023-04-29T14:19:51.908Z,16.13
2023-04-29T14:22:21.574Z,12.73
2023-04-29T14:24:51.790Z,12.43
2023-04-29T14:27:21.803Z,15.88
2023-04-29T14:29:52.118Z,12.75
2023-04-29T14:32:21.211Z,10.70
2023-04-29T14:34:50.149Z,12.10
2023-04-29T14:37:19.184Z,12.95
2023-04-29T14:39:48.047Z,10.85
2023-04-29T14:42:18.731Z,15.65
2023-04-29T14:44:47.713Z,11.60
2023-04-29T14:47:18.247Z,11.90
2023-04-29T14:49:47.274Z,9.90
2023-04-29T14:52:16.882Z,11.70
2023-04-29T14:54:45.979Z,12.02
2023-04-29T14:57:14.807Z,12.57
2023-04-29T14:59:43.575Z,10.30
2023-04-29T15:02:14.308Z,10.52
2023-04-29T15:04:46.199Z,9.80
2023-04-29T15:07:15.881Z,12.20
2023-04-29T15:09:47.817Z,10.70
2023-04-29T15:12:18.092Z,11.75
2023-04-29T15:14:47.497Z,10.65
2023-04-29T15:17:16.383Z,11.10
2023-04-29T15:19:46.992Z,8.50
2023-04-29T15:22:15.982Z,10.82
2023-04-29T15:24:45.087Z,9.75
2023-04-29T15:27:16.231Z,11.32
2023-04-29T15:29:45.132Z,10.25
2023-04-29T15:32:14.046Z,10.07
2023-04-29T15:34:42.929Z,10.48
2023-04-29T15:37:13.134Z,8.55
2023-04-29T15:39:42.326Z,12.18
2023-04-29T15:42:11.306Z,9.65
2023-04-29T15:44:40.304Z,11.20
2023-04-29T15:47:09.215Z,10.95
2023-04-29T15:49:38.424Z,10.95
2023-04-29T15:52:07.320Z,10.10
2023-04-29T15:54:37.799Z,10.93
2023-04-29T15:57:06.711Z,9.82
2023-04-29T15:59:35.599Z,10.32
2023-04-29T16:02:10.451Z,10.60
2023-04-29T16:04:39.539Z,10.13
2023-04-29T16:07:08.562Z,11.02
2023-04-29T16:09:39.007Z,10.45
2023-04-29T16:12:08.597Z,11.18
2023-04-29T16:14:37.505Z,10.35
2023-04-29T16:17:06.512Z,11.35
2023-04-29T16:19:37.057Z,12.50
2023-04-29T16:22:06.376Z,9.57
2023-04-29T16:24:35.187Z,10.68
2023-04-29T16:27:05.691Z,9.45
2023-04-29T16:29:34.792Z,10.95
2023-04-29T16:32:04.126Z,14.85
2023-04-29T16:34:32.853Z,9.55
2023-04-29T16:37:02.078Z,8.68
2023-04-29T16:39:31.276Z,9.52
2023-04-29T16:42:00.755Z,10.25
2023-04-29T16:44:31.098Z,11.60
2023-04-29T16:47:00.322Z,9.50
2023-04-29T16:49:30.052Z,10.90
2023-04-29T16:51:59.050Z,10.50
2023-04-29T16:54:28.177Z,9.50
2023-04-29T16:56:57.131Z,10.82
2023-04-29T16:59:26.228Z,8.68
2023-04-29T17:01:57.315Z,9.07
2023-04-29T17:04:26.699Z,8.38
2023-04-29T17:06:56.519Z,9.20
2023-04-29T17:09:26.108Z,8.15
2023-04-29T17:11:55.403Z,10.68
2023-04-29T17:14:24.450Z,13.73
2023-04-29T17:16:54.100Z,10.60
2023-04-29T17:19:24.920Z,10.05
2023-04-29T17:21:54.029Z,9.57
2023-04-29T17:24:25.611Z,14.05
2023-04-29T17:26:54.574Z,8.70
2023-04-29T17:29:23.653Z,8.65
2023-04-29T17:31:59.696Z,12.13
2023-04-29T17:34:31.313Z,13.00
2023-04-29T17:37:00.132Z,11.07
2023-04-29T17:39:29.337Z,9.20
2023-04-29T17:41:58.526Z,9.90
2023-04-29T17:44:27.915Z,11.70
2023-04-29T17:46:57.399Z,11.68
2023-04-29T17:49:27.080Z,10.82
2023-04-29T17:51:57.389Z,9.82
2023-04-29T17:54:26.628Z,9.23
2023-04-29T17:56:55.838Z,11.13
2023-04-29T17:59:28.498Z,10.88
2023-04-29T18:01:57.614Z,8.50
2023-04-29T18:04:27.119Z,8.93
2023-04-29T18:06:57.992Z,8.65
2023-04-29T18:09:28.032Z,11.10
2023-04-29T18:11:57.739Z,10.60
2023-04-29T18:14:29.335Z,9.27
2023-04-29T18:17:00.173Z,11.93
2023-04-29T18:19:30.369Z,8.50
2023-04-29T18:22:02.835Z,9.32
2023-04-29T18:24:32.697Z,9.40
2023-04-29T18:27:02.292Z,9.02
2023-04-29T18:29:31.361Z,8.70
2023-04-29T18:32:00.251Z,12.15
2023-04-29T18:34:29.436Z,10.00
2023-04-29T18:36:58.509Z,10.02
2023-04-29T18:39:29.328Z,8.48
2023-04-29T18:41:59.329Z,14.60
2023-04-29T18:44:29.855Z,15.23
2023-04-29T18:46:59.116Z,16.88
2023-04-29T18:49:28.282Z,21.50
2023-04-29T18:51:57.537Z,19.30
2023-04-29T18:54:26.506Z,21.30
2023-04-29T18:56:56.941Z,20.00
2023-04-29T18:59:27.271Z,18.83
2023-04-29T19:01:56.546Z,18.52
2023-04-29T19:04:25.907Z,22.55
2023-04-29T19:06:55.204Z,34.33
2023-04-29T19:09:24.129Z,38.67
2023-04-29T19:11:53.056Z,27.38
2023-04-29T19:14:23.673Z,25.35
2023-04-29T19:16:52.818Z,19.73
2023-04-29T19:19:24.685Z,24.13
2023-04-29T19:21:54.087Z,21.92
2023-04-29T19:24:23.533Z,23.65
2023-04-29T19:26:53.635Z,21.13
2023-04-29T19:29:24.108Z,21.90
2023-04-29T19:31:53.204Z,19.98
2023-04-29T19:34:22.789Z,24.73
2023-04-29T19:36:52.351Z,18.30
2023-04-29T19:39:21.214Z,19.60
2023-04-29T19:41:50.894Z,19.27
2023-04-29T19:44:20.577Z,20.60
2023-04-29T19:46:53.813Z,18.83
2023-04-29T19:49:23.165Z,22.30
2023-04-29T19:51:52.787Z,16.88
2023-04-29T19:54:22.110Z,19.15
2023-04-29T19:56:51.427Z,24.17
2023-04-29T19:59:20.391Z,28.27
2023-04-29T20:01:52.071Z,20.42
2023-04-29T20:04:24.702Z,17.85
2023-04-29T20:06:53.813Z,22.90
2023-04-29T20:09:23.275Z,19.55
2023-04-29T20:11:52.998Z,22.08
2023-04-29T20:14:22.654Z,23.67
2023-04-29T20:16:53.437Z,26.10
2023-04-29T20:19:23.866Z,20.48
2023-04-29T20:21:53.399Z,23.73
2023-04-29T20:24:22.374Z,20.65
2023-04-29T20:26:51.711Z,19.40
2023-04-29T20:29:21.306Z,19.33
2023-04-29T20:31:50.568Z,19.75
2023-04-29T20:34:20.159Z,20.70
2023-04-29T20:36:50.989Z,19.63
2023-04-29T20:39:22.410Z,24.38
2023-04-29T20:41:54.088Z,19.23
2023-04-29T20:44:24.078Z,17.83
2023-04-29T20:46:53.255Z,18.00
2023-04-29T20:49:22.384Z,20.30
2023-04-29T20:51:52.472Z,20.33
2023-04-29T20:54:22.245Z,19.13
2023-04-29T20:56:51.680Z,20.60
2023-04-29T20:59:21.337Z,20.48
2023-04-29T21:01:53.508Z,21.88
2023-04-29T21:04:23.391Z,21.00
2023-04-29T21:06:55.581Z,22.23
2023-04-29T21:09:25.327Z,19.55
2023-04-29T21:11:55.248Z,22.05
2023-04-29T21:14:24.269Z,22.42
2023-04-29T21:16:53.569Z,21.63
2023-04-29T21:19:22.419Z,20.63
2023-04-29T21:21:52.613Z,22.42
2023-04-29T21:24:23.551Z,22.40
2023-04-29T21:26:52.986Z,19.55
2023-04-29T21:29:22.770Z,20.10
2023-04-29T21:31:51.936Z,21.67
2023-04-29T21:34:21.663Z,20.83
2023-04-29T21:36:51.103Z,20.83
2023-04-29T21:39:20.006Z,19.30
2023-04-29T21:41:51.259Z,23.20
2023-04-29T21:44:21.005Z,25.65
2023-04-29T21:46:51.761Z,23.85
2023-04-29T21:49:22.061Z,26.13
2023-04-29T21:51:52.808Z,22.30
2023-04-29T21:54:23.882Z,23.15
2023-04-29T21:56:54.742Z,24.45
2023-04-29T21:59:24.472Z,21.77
2023-04-29T22:02:00.615Z,22.02
2023-04-29T22:04:30.252Z,21.38
2023-04-29T22:07:01.063Z,23.58
2023-04-29T22:09:31.394Z,22.65
2023-04-29T22:12:03.074Z,21.48
2023-04-29T22:14:32.300Z,24.25
2023-04-29T22:17:01.074Z,23.13
2023-04-29T22:19:30.437Z,24.88
2023-04-29T22:21:59.398Z,23.77
2023-04-29T22:24:29.210Z,23.77
2023-04-29T22:26:58.725Z,20.30
2023-04-29T22:29:29.835Z,27.50
2023-04-29T22:32:00.763Z,23.80
2023-04-29T22:34:29.851Z,22.33
2023-04-29T22:36:58.925Z,22.25
2023-04-29T22:39:27.851Z,22.58
2023-04-29T22:41:56.859Z,19.80
2023-04-29T22:44:32.622Z,21.83
2023-04-29T22:47:01.887Z,20.45
2023-04-29T22:49:33.819Z,23.05
2023-04-29T22:52:02.724Z,23.85
2023-04-29T22:54:31.703Z,21.13
2023-04-29T22:57:00.935Z,17.75
2023-04-29T22:59:31.384Z,22.02
2023-04-29T23:02:00.169Z,20.70
2023-04-29T23:04:29.227Z,20.42
2023-04-29T23:06:58.089Z,21.17
2023-04-29T23:09:27.470Z,20.80
2023-04-29T23:11:58.150Z,16.58
2023-04-29T23:14:27.008Z,22.60
2023-04-29T23:16:57.440Z,19.50
2023-04-29T23:19:26.528Z,20.42
2023-04-29T23:21:56.205Z,21.45
2023-04-29T23:24:25.143Z,19.73
2023-04-29T23:26:54.030Z,19.77
2023-04-29T23:29:22.757Z,17.45
2023-04-29T23:31:51.958Z,18.08
2023-04-29T23:34:22.277Z,17.80
2023-04-29T23:36:51.277Z,19.13
2023-04-29T23:39:20.319Z,16.45
2023-04-29T23:41:49.070Z,17.40
2023-04-29T23:44:17.967Z,15.98
2023-04-29T23:46:46.770Z,17.70
2023-04-29T23:49:15.848Z,19.67
2023-04-29T23:51:46.432Z,17.25
2023-04-29T23:54:17.183Z,15.27
2023-04-29T23:56:46.138Z,16.60
2023-04-29T23:59:15.419Z,15.82
